createdAt,value
2018-06-11T00:00:24.080Z,32.47
2018-06-11T00:02:54.524Z,38.97
2018-06-11T00:05:25.055Z,31.53
2018-06-11T00:07:55.580Z,32.10
2018-06-11T00:10:26.269Z,56.83
2018-06-11T00:12:56.889Z,31.57
2018-06-11T00:15:27.576Z,28.23
2018-06-11T00:17:57.808Z,30.83
2018-06-11T00:20:28.357Z,25.97
2018-06-11T00:22:59.143Z,32.53
2018-06-11T00:25:29.792Z,32.50
2018-06-11T00:28:00.289Z,27.80
2018-06-11T00:30:31.013Z,27.00
2018-06-11T00:33:01.538Z,27.90
2018-06-11T00:35:32.255Z,25.43
2018-06-11T00:38:02.844Z,22.90
2018-06-11T00:40:33.587Z,34.00
2018-06-11T00:43:04.041Z,23.20
2018-06-11T00:45:34.624Z,23.60
2018-06-11T00:48:05.178Z,29.00
2018-06-11T00:50:35.816Z,33.40
2018-06-11T00:53:06.537Z,20.90
2018-06-11T00:55:53.861Z,20.57
2018-06-11T00:58:24.052Z,21.40
2018-06-11T01:00:54.500Z,23.50
2018-06-11T01:03:25.173Z,27.90
2018-06-11T01:05:55.711Z,16.70
2018-06-11T01:08:26.327Z,21.90
2018-06-11T01:10:56.840Z,24.10
2018-06-11T01:13:27.691Z,26.40
2018-06-11T01:15:58.479Z,16.70
2018-06-11T01:18:30.108Z,33.97
2018-06-11T01:21:01.266Z,20.83
2018-06-11T01:23:32.067Z,27.73
2018-06-11T01:26:02.638Z,46.93
2018-06-11T01:28:33.506Z,30.93
2018-06-11T01:31:04.196Z,18.17
2018-06-11T01:33:35.530Z,18.33
2018-06-11T01:36:06.449Z,20.37
2018-06-11T01:38:37.164Z,19.17
2018-06-11T01:41:07.835Z,18.13
2018-06-11T01:43:38.613Z,21.80
2018-06-11T01:46:09.284Z,20.33
2018-06-11T01:48:39.949Z,19.27
2018-06-11T01:51:10.537Z,19.57
2018-06-11T01:53:41.262Z,19.17
2018-06-11T01:56:12.316Z,29.30
2018-06-11T01:58:43.010Z,21.93
2018-06-11T02:01:14.605Z,20.07
2018-06-11T02:03:45.224Z,36.60
2018-06-11T02:06:19.473Z,30.33
2018-06-11T02:08:50.175Z,22.73
2018-06-11T02:11:20.803Z,21.03
2018-06-11T02:13:51.086Z,21.03
2018-06-11T02:16:21.661Z,25.63
2018-06-11T02:18:52.233Z,22.57
2018-06-11T02:21:22.688Z,17.70
2018-06-11T02:23:53.476Z,17.80
2018-06-11T02:26:24.105Z,21.87
2018-06-11T02:28:54.822Z,21.23
2018-06-11T02:31:25.562Z,24.20
2018-06-11T02:33:56.188Z,16.90
2018-06-11T02:36:26.705Z,24.23
2018-06-11T02:38:57.452Z,45.53
2018-06-11T02:41:28.161Z,19.53
2018-06-11T02:43:58.631Z,21.27
2018-06-11T02:46:29.379Z,21.43
2018-06-11T02:49:00.594Z,20.00
2018-06-11T02:51:31.129Z,21.87
2018-06-11T02:54:02.317Z,28.57
2018-06-11T02:56:32.998Z,24.60
2018-06-11T02:59:03.632Z,20.27
2018-06-11T03:01:34.241Z,20.60
2018-06-11T03:04:04.785Z,21.60
2018-06-11T03:06:35.529Z,23.13
2018-06-11T03:09:08.016Z,21.80
2018-06-11T03:11:38.621Z,23.13
2018-06-11T03:14:09.132Z,19.37
2018-06-11T03:16:39.816Z,37.53
2018-06-11T03:19:10.549Z,18.37
2018-06-11T03:21:41.645Z,24.50
2018-06-11T03:24:13.779Z,22.80
2018-06-11T03:26:44.602Z,19.90
2018-06-11T03:29:15.343Z,24.80
2018-06-11T03:31:46.045Z,20.13
2018-06-11T03:34:16.995Z,22.60
2018-06-11T03:36:47.590Z,37.37
2018-06-11T03:39:18.337Z,23.80
2018-06-11T03:41:48.959Z,25.73
2018-06-11T03:44:19.526Z,27.27
2018-06-11T03:46:50.123Z,29.50
2018-06-11T03:49:20.809Z,17.70
2018-06-11T03:51:51.341Z,17.87
2018-06-11T03:54:22.068Z,18.17
2018-06-11T03:56:53.109Z,26.33
2018-06-11T03:59:23.892Z,22.27
2018-06-11T04:01:54.633Z,19.83
2018-06-11T04:04:25.304Z,18.17
2018-06-11T04:06:55.854Z,18.33
2018-06-11T04:09:26.536Z,21.67
2018-06-11T04:11:57.149Z,17.37
2018-06-11T04:14:27.697Z,18.53
2018-06-11T04:16:58.640Z,19.60
2018-06-11T04:19:29.914Z,16.37
2018-06-11T04:22:00.590Z,22.83
2018-06-11T04:24:31.405Z,15.00
2018-06-11T04:27:02.095Z,15.77
2018-06-11T04:29:33.838Z,15.10
2018-06-11T04:32:04.530Z,34.23
2018-06-11T04:34:35.372Z,13.07
2018-06-11T04:37:06.475Z,14.67
2018-06-11T04:39:37.306Z,16.30
2018-06-11T04:42:08.149Z,18.57
2018-06-11T04:44:38.714Z,19.73
2018-06-11T04:47:09.406Z,18.50
2018-06-11T04:49:40.123Z,12.80
2018-06-11T04:52:10.843Z,12.53
2018-06-11T04:54:41.497Z,21.83
2018-06-11T04:57:18.570Z,15.03
2018-06-11T04:59:49.202Z,18.20
2018-06-11T05:02:19.841Z,17.33
2018-06-11T05:04:50.515Z,13.00
2018-06-11T05:07:21.074Z,15.43
2018-06-11T05:09:51.582Z,26.13
2018-06-11T05:12:22.249Z,18.30
2018-06-11T05:14:52.843Z,11.73
2018-06-11T05:17:23.508Z,10.87
2018-06-11T05:19:53.998Z,11.03
2018-06-11T05:22:24.682Z,11.53
2018-06-11T05:24:54.931Z,15.93
2018-06-11T05:27:25.437Z,10.33
2018-06-11T05:29:56.040Z,10.20
2018-06-11T05:32:26.704Z,7.93
2018-06-11T05:34:57.296Z,8.53
2018-06-11T05:37:27.842Z,6.57
2018-06-11T05:39:58.404Z,11.07
2018-06-11T05:42:28.998Z,5.53
2018-06-11T05:44:59.642Z,8.00
2018-06-11T05:47:30.358Z,6.70
2018-06-11T05:50:01.033Z,7.60
2018-06-11T05:52:31.568Z,6.47
2018-06-11T05:55:02.168Z,6.70
2018-06-11T05:57:32.986Z,6.00
2018-06-11T06:00:03.676Z,6.90
2018-06-11T06:02:34.273Z,6.30
2018-06-11T06:05:05.088Z,11.17
2018-06-11T06:07:35.705Z,8.60
2018-06-11T06:10:06.387Z,8.80
2018-06-11T06:12:36.999Z,7.77
2018-06-11T06:15:07.866Z,9.57
2018-06-11T06:17:39.253Z,10.90
2018-06-11T06:20:09.880Z,6.50
2018-06-11T06:22:40.508Z,9.10
2018-06-11T06:25:11.196Z,8.70
2018-06-11T06:27:41.737Z,7.57
2018-06-11T06:30:12.345Z,8.23
2018-06-11T06:32:43.078Z,6.77
2018-06-11T06:35:13.790Z,7.83
2018-06-11T06:37:44.385Z,7.43
2018-06-11T06:40:15.186Z,8.40
2018-06-11T06:42:45.698Z,9.07
2018-06-11T06:45:16.347Z,6.87
2018-06-11T06:47:47.113Z,7.10
2018-06-11T06:50:17.916Z,6.70
2018-06-11T06:52:48.760Z,7.90
2018-06-11T06:55:19.270Z,8.40
2018-06-11T06:57:49.945Z,6.60
2018-06-11T07:00:20.608Z,7.50
2018-06-11T07:02:51.104Z,7.60
2018-06-11T07:05:21.859Z,7.17
2018-06-11T07:07:52.428Z,6.43
2018-06-11T07:10:23.173Z,5.50
2018-06-11T07:12:54.134Z,5.60
2018-06-11T07:15:24.844Z,6.23
2018-06-11T07:17:55.346Z,7.10
2018-06-11T07:20:26.019Z,5.73
2018-06-11T07:22:56.736Z,5.30
2018-06-11T07:25:27.254Z,6.57
2018-06-11T07:27:57.978Z,6.93
2018-06-11T07:30:28.589Z,6.43
2018-06-11T07:32:59.136Z,7.43
2018-06-11T07:35:30.046Z,7.10
2018-06-11T07:38:00.734Z,8.03
2018-06-11T07:40:31.351Z,11.37
2018-06-11T07:43:01.975Z,8.97
2018-06-11T07:45:32.614Z,11.13
2018-06-11T07:48:03.115Z,7.60
2018-06-11T07:50:33.670Z,7.57
2018-06-11T07:53:04.072Z,11.40
2018-06-11T07:55:34.668Z,10.10
2018-06-11T07:58:05.417Z,9.40
2018-06-11T08:00:36.076Z,10.83
2018-06-11T08:03:06.708Z,9.90
2018-06-11T08:05:37.287Z,10.57
2018-06-11T08:08:07.966Z,9.70
2018-06-11T08:10:38.679Z,12.23
2018-06-11T08:13:09.361Z,8.13
2018-06-11T08:15:39.931Z,11.40
2018-06-11T08:18:10.559Z,10.20
2018-06-11T08:20:42.406Z,12.50
2018-06-11T08:23:13.261Z,9.13
2018-06-11T08:25:43.868Z,9.67
2018-06-11T08:28:14.410Z,8.20
2018-06-11T08:30:44.880Z,9.60
2018-06-11T08:33:15.365Z,11.60
2018-06-11T08:35:46.153Z,9.63
2018-06-11T08:38:16.763Z,12.80
2018-06-11T08:40:47.383Z,14.43
2018-06-11T08:43:18.633Z,10.00
2018-06-11T08:45:49.157Z,11.67
2018-06-11T08:48:19.766Z,11.30
2018-06-11T08:50:50.605Z,12.97
2018-06-11T08:53:21.159Z,13.97
2018-06-11T08:55:51.865Z,17.53
2018-06-11T08:58:22.358Z,13.20
2018-06-11T09:00:53.468Z,11.53
2018-06-11T09:03:24.262Z,14.43
2018-06-11T09:05:54.872Z,11.20
2018-06-11T09:08:25.559Z,9.90
2018-06-11T09:10:56.365Z,13.47
2018-06-11T09:13:26.968Z,12.57
2018-06-11T09:15:57.327Z,10.33
2018-06-11T09:18:27.899Z,11.00
2018-06-11T09:20:58.583Z,12.80
2018-06-11T09:23:29.135Z,16.03
2018-06-11T09:26:00.371Z,11.30
2018-06-11T09:28:31.132Z,17.23
2018-06-11T09:31:01.938Z,17.23
2018-06-11T09:33:32.829Z,10.23
2018-06-11T09:36:03.335Z,9.63
2018-06-11T09:38:33.949Z,13.20
2018-06-11T09:41:04.671Z,10.37
2018-06-11T09:43:35.285Z,7.83
2018-06-11T09:46:05.916Z,8.60
2018-06-11T09:48:36.372Z,7.90
2018-06-11T09:51:07.187Z,8.43
2018-06-11T09:53:37.561Z,7.90
2018-06-11T09:56:08.133Z,7.53
2018-06-11T09:58:39.013Z,8.13
2018-06-11T10:01:09.544Z,11.40
2018-06-11T10:03:40.417Z,8.53
2018-06-11T10:06:10.977Z,11.17
2018-06-11T10:08:41.724Z,7.47
2018-06-11T10:11:15.374Z,9.90
2018-06-11T10:13:46.040Z,9.53
2018-06-11T10:16:16.698Z,9.90
2018-06-11T10:18:47.497Z,13.20
2018-06-11T10:21:18.412Z,9.57
2018-06-11T10:23:49.197Z,13.90
2018-06-11T10:26:19.776Z,7.70
2018-06-11T10:28:50.548Z,8.00
2018-06-11T10:31:21.124Z,8.83
2018-06-11T10:33:51.942Z,8.07
2018-06-11T10:36:22.501Z,10.60
2018-06-11T10:38:53.185Z,9.93
2018-06-11T10:41:23.812Z,7.80
2018-06-11T10:43:55.167Z,9.80
2018-06-11T10:46:25.857Z,16.30
2018-06-11T10:48:56.413Z,8.30
2018-06-11T10:51:26.968Z,9.50
2018-06-11T10:53:57.453Z,9.17
2018-06-11T10:56:28.065Z,10.63
2018-06-11T10:58:58.656Z,9.17
2018-06-11T11:01:29.120Z,9.07
2018-06-11T11:03:59.795Z,9.83
2018-06-11T11:06:30.384Z,9.97
2018-06-11T11:09:01.099Z,10.30
2018-06-11T11:11:31.586Z,8.70
2018-06-11T11:14:02.448Z,8.83
2018-06-11T11:16:33.083Z,10.63
2018-06-11T11:19:03.742Z,10.23
2018-06-11T11:21:34.885Z,9.27
2018-06-11T11:24:11.878Z,8.33
2018-06-11T11:26:42.531Z,8.73
2018-06-11T11:29:13.224Z,9.20
2018-06-11T11:31:43.904Z,11.20
2018-06-11T11:34:14.483Z,8.40
2018-06-11T11:36:45.198Z,10.23
2018-06-11T11:39:15.865Z,11.40
2018-06-11T11:41:46.381Z,9.87
2018-06-11T11:44:17.593Z,9.27
2018-06-11T11:46:48.437Z,13.13
2018-06-11T11:49:18.955Z,18.13
2018-06-11T11:51:50.357Z,10.00
2018-06-11T11:54:21.604Z,11.00
2018-06-11T11:56:52.096Z,11.17
2018-06-11T11:59:22.810Z,7.60
2018-06-11T12:01:53.604Z,9.77
2018-06-11T12:04:24.370Z,9.63
2018-06-11T12:06:54.992Z,12.30
2018-06-11T12:09:25.723Z,9.10
2018-06-11T12:11:56.268Z,13.80
2018-06-11T12:14:26.882Z,12.53
2018-06-11T12:16:57.496Z,12.20
2018-06-11T12:19:28.173Z,12.93
2018-06-11T12:21:59.195Z,12.83
2018-06-11T12:24:29.967Z,10.10
2018-06-11T12:27:00.500Z,10.57
2018-06-11T12:29:31.321Z,12.27
2018-06-11T12:32:01.844Z,11.23
2018-06-11T12:34:32.515Z,14.33
2018-06-11T12:37:03.233Z,12.77
2018-06-11T12:39:33.845Z,10.10
2018-06-11T12:42:04.495Z,13.63
2018-06-11T12:44:35.060Z,17.10
2018-06-11T12:47:05.768Z,13.10
2018-06-11T12:49:37.056Z,13.67
2018-06-11T12:52:07.839Z,11.23
2018-06-11T12:54:38.518Z,12.70
2018-06-11T12:57:09.342Z,15.73
2018-06-11T12:59:40.227Z,18.53
2018-06-11T13:02:10.520Z,20.87
2018-06-11T13:04:41.079Z,17.00
2018-06-11T13:07:11.864Z,18.97
2018-06-11T13:09:42.823Z,24.73
2018-06-11T13:12:13.790Z,25.20
2018-06-11T13:14:44.048Z,18.80
2018-06-11T13:17:14.717Z,16.17
2018-06-11T13:19:45.402Z,18.30
2018-06-11T13:22:16.377Z,18.97
2018-06-11T13:24:47.162Z,19.37
2018-06-11T13:27:17.715Z,19.67
2018-06-11T13:29:52.811Z,19.27
2018-06-11T13:32:23.674Z,15.80
2018-06-11T13:34:54.185Z,19.00
2018-06-11T13:37:25.055Z,19.90
2018-06-11T13:39:55.640Z,19.07
2018-06-11T13:42:26.387Z,20.30
2018-06-11T13:44:57.149Z,32.13
2018-06-11T13:47:27.849Z,20.17
2018-06-11T13:49:58.127Z,22.73
2018-06-11T13:52:28.740Z,24.47
2018-06-11T13:54:59.350Z,18.10
2018-06-11T13:57:29.795Z,19.27
2018-06-11T13:59:59.875Z,24.03
2018-06-11T14:02:30.318Z,24.43
2018-06-11T14:05:01.002Z,21.43
2018-06-11T14:07:31.685Z,20.37
2018-06-11T14:10:02.212Z,24.10
2018-06-11T14:12:33.764Z,25.13
2018-06-11T14:15:04.203Z,21.63
2018-06-11T14:17:34.844Z,31.70
2018-06-11T14:20:05.437Z,37.60
2018-06-11T14:22:36.542Z,27.80
2018-06-11T14:25:07.025Z,24.17
2018-06-11T14:27:37.664Z,29.60
2018-06-11T14:30:08.284Z,33.50
2018-06-11T14:32:39.168Z,31.70
2018-06-11T14:35:09.958Z,36.13
2018-06-11T14:37:40.502Z,42.60
2018-06-11T14:40:11.236Z,34.90
2018-06-11T14:42:42.158Z,33.87
2018-06-11T14:45:12.689Z,46.23
2018-06-11T14:47:43.553Z,59.20
2018-06-11T14:50:14.250Z,35.10
2018-06-11T14:52:45.106Z,45.53
2018-06-11T14:55:15.662Z,37.03
2018-06-11T14:57:46.183Z,43.67
2018-06-11T15:00:16.776Z,42.20
2018-06-11T15:02:47.820Z,49.27
2018-06-11T15:05:18.568Z,51.93
2018-06-11T15:07:49.348Z,47.43
2018-06-11T15:10:19.927Z,40.63
2018-06-11T15:12:50.622Z,44.97
2018-06-11T15:15:21.215Z,40.73
2018-06-11T15:17:52.013Z,41.50
2018-06-11T15:20:22.872Z,43.43
2018-06-11T15:22:54.425Z,54.13
2018-06-11T15:25:25.135Z,48.77
2018-06-11T15:27:55.874Z,42.13
2018-06-11T15:30:26.715Z,42.60
2018-06-11T15:32:57.460Z,47.47
2018-06-11T15:35:28.176Z,47.80
2018-06-11T15:37:58.956Z,50.93
2018-06-11T15:40:29.678Z,39.00
2018-06-11T15:43:00.432Z,49.07
2018-06-11T15:45:31.028Z,42.43
2018-06-11T15:48:01.785Z,42.00
2018-06-11T15:50:32.443Z,38.60
2018-06-11T15:53:03.259Z,43.80
2018-06-11T15:55:33.957Z,57.40
2018-06-11T15:58:04.756Z,36.90
2018-06-11T16:00:35.205Z,46.77
2018-06-11T16:03:05.809Z,39.23
2018-06-11T16:05:36.398Z,42.80
2018-06-11T16:08:06.904Z,39.53
2018-06-11T16:10:37.499Z,50.73
2018-06-11T16:13:08.094Z,44.10
2018-06-11T16:15:38.803Z,43.17
2018-06-11T16:18:10.175Z,44.87
2018-06-11T16:20:41.093Z,40.03
2018-06-11T16:23:11.701Z,39.10
2018-06-11T16:25:42.536Z,48.33
2018-06-11T16:28:14.225Z,44.40
2018-06-11T16:30:44.651Z,35.47
2018-06-11T16:33:15.295Z,40.40
2018-06-11T16:35:46.021Z,43.43
2018-06-11T16:38:16.717Z,41.90
2018-06-11T16:40:47.452Z,30.50
2018-06-11T16:43:18.088Z,32.97
2018-06-11T16:45:48.954Z,33.77
2018-06-11T16:48:19.510Z,39.30
2018-06-11T16:50:50.214Z,31.00
2018-06-11T16:53:22.164Z,32.53
2018-06-11T16:55:52.889Z,38.13
2018-06-11T16:58:23.551Z,37.73
2018-06-11T17:00:54.229Z,34.40
2018-06-11T17:03:24.931Z,42.93
2018-06-11T17:05:55.453Z,37.97
2018-06-11T17:08:26.046Z,40.07
2018-06-11T17:10:56.731Z,41.40
2018-06-11T17:13:27.460Z,33.00
2018-06-11T17:15:58.181Z,47.37
2018-06-11T17:18:28.970Z,31.00
2018-06-11T17:20:59.436Z,37.33
2018-06-11T17:23:29.838Z,34.67
2018-06-11T17:26:00.517Z,33.83
2018-06-11T17:28:31.446Z,32.00
2018-06-11T17:31:02.244Z,30.70
2018-06-11T17:33:32.958Z,36.70
2018-06-11T17:36:03.509Z,29.17
2018-06-11T17:38:33.975Z,36.13
2018-06-11T17:41:04.573Z,35.60
2018-06-11T17:43:35.264Z,29.00
2018-06-11T17:46:06.653Z,27.27
2018-06-11T17:48:38.144Z,32.50
2018-06-11T17:51:08.818Z,30.30
2018-06-11T17:53:39.527Z,33.93
2018-06-11T17:56:10.128Z,27.77
2018-06-11T17:58:41.093Z,31.83
2018-06-11T18:01:11.877Z,27.70
2018-06-11T18:03:42.727Z,26.43
2018-06-11T18:06:13.595Z,29.27
2018-06-11T18:08:43.912Z,38.20
2018-06-11T18:11:15.281Z,26.10
2018-06-11T18:13:46.332Z,25.47
2018-06-11T18:16:16.946Z,36.73
2018-06-11T18:18:47.626Z,32.30
2018-06-11T18:21:18.191Z,31.70
2018-06-11T18:23:49.157Z,24.90
2018-06-11T18:26:20.044Z,31.70
2018-06-11T18:28:50.588Z,44.47
2018-06-11T18:31:21.036Z,22.97
2018-06-11T18:33:51.565Z,34.00
2018-06-11T18:36:22.382Z,46.70
2018-06-11T18:38:52.920Z,29.90
2018-06-11T18:41:23.539Z,40.23
2018-06-11T18:43:54.867Z,36.90
2018-06-11T18:46:26.499Z,27.77
2018-06-11T18:48:58.158Z,28.53
2018-06-11T18:51:29.807Z,26.50
2018-06-11T18:54:00.710Z,29.20
2018-06-11T18:56:31.521Z,53.53
2018-06-11T18:59:01.799Z,30.90
2018-06-11T19:01:32.412Z,34.03
2018-06-11T19:04:03.748Z,27.10
2018-06-11T19:06:34.547Z,32.30
2018-06-11T19:09:07.789Z,32.33
2018-06-11T19:11:38.636Z,28.83
2018-06-11T19:14:09.340Z,30.87
2018-06-11T19:16:40.126Z,28.20
2018-06-11T19:19:10.792Z,29.23
2018-06-11T19:21:41.745Z,32.03
2018-06-11T19:24:13.212Z,30.47
2018-06-11T19:26:44.020Z,31.03
2018-06-11T19:29:15.040Z,30.80
2018-06-11T19:31:45.890Z,36.98
2018-06-11T19:34:16.482Z,31.50
2018-06-11T19:36:47.102Z,27.77
2018-06-11T19:39:17.880Z,28.90
2018-06-11T19:41:48.515Z,26.23
2018-06-11T19:44:19.297Z,29.20
2018-06-11T19:46:50.016Z,28.70
2018-06-11T19:49:20.655Z,30.77
2018-06-11T19:51:51.396Z,24.80
2018-06-11T19:54:24.105Z,35.23
2018-06-11T19:56:55.069Z,34.60
2018-06-11T19:59:25.890Z,26.57
2018-06-11T20:01:56.689Z,24.20
2018-06-11T20:04:27.656Z,41.87
2018-06-11T20:06:58.603Z,33.00
2018-06-11T20:09:29.152Z,25.10
2018-06-11T20:11:59.944Z,28.53
2018-06-11T20:14:31.398Z,38.47
2018-06-11T20:17:02.129Z,27.53
2018-06-11T20:19:32.717Z,23.10
2018-06-11T20:22:03.552Z,23.23
2018-06-11T20:24:34.213Z,25.57
2018-06-11T20:27:05.058Z,26.87
2018-06-11T20:29:36.198Z,35.30
2018-06-11T20:32:06.919Z,28.67
2018-06-11T20:34:37.677Z,23.90
2018-06-11T20:37:08.161Z,29.03
2018-06-11T20:39:39.022Z,23.60
2018-06-11T20:42:09.712Z,27.70
2018-06-11T20:44:40.498Z,27.73
2018-06-11T20:47:11.438Z,23.23
2018-06-11T20:49:42.454Z,30.10
2018-06-11T20:52:13.095Z,23.77
2018-06-11T20:54:43.998Z,22.97
2018-06-11T20:57:14.880Z,18.23
2018-06-11T20:59:48.838Z,21.87
2018-06-11T21:02:19.341Z,27.00
2018-06-11T21:04:51.183Z,23.20
2018-06-11T21:07:21.757Z,22.67
2018-06-11T21:09:53.092Z,23.83
2018-06-11T21:12:25.284Z,25.53
2018-06-11T21:14:55.980Z,22.83
2018-06-11T21:17:27.078Z,26.03
2018-06-11T21:20:01.083Z,34.33
2018-06-11T21:22:32.022Z,25.97
2018-06-11T21:25:02.296Z,20.20
2018-06-11T21:27:33.088Z,24.20
2018-06-11T21:30:03.911Z,26.63
2018-06-11T21:32:35.072Z,22.90
2018-06-11T21:35:05.861Z,22.37
2018-06-11T21:37:36.904Z,27.70
2018-06-11T21:40:08.044Z,26.57
2018-06-11T21:42:39.132Z,24.63
2018-06-11T21:45:09.862Z,22.77
2018-06-11T21:47:40.451Z,20.47
2018-06-11T21:50:11.062Z,25.20
2018-06-11T21:52:41.777Z,22.33
2018-06-11T21:55:12.488Z,21.00
2018-06-11T21:57:43.895Z,22.23
2018-06-11T22:00:14.568Z,30.70
2018-06-11T22:02:45.310Z,22.77
2018-06-11T22:05:16.146Z,23.70
2018-06-11T22:07:46.934Z,23.30
2018-06-11T22:10:17.749Z,25.07
2018-06-11T22:12:48.517Z,16.77
2018-06-11T22:15:18.732Z,17.57
2018-06-11T22:17:49.907Z,21.10
2018-06-11T22:20:21.096Z,16.90
2018-06-11T22:22:51.831Z,18.03
2018-06-11T22:25:22.413Z,18.30
2018-06-11T22:27:53.394Z,19.30
2018-06-11T22:30:24.134Z,27.40
2018-06-11T22:32:54.832Z,22.40
2018-06-11T22:35:25.825Z,22.77
2018-06-11T22:37:56.501Z,16.20
2018-06-11T22:40:27.272Z,21.33
2018-06-11T22:42:57.869Z,17.40
2018-06-11T22:45:28.589Z,18.30
2018-06-11T22:47:59.300Z,18.27
2018-06-11T22:50:29.818Z,20.40
2018-06-11T22:53:00.586Z,16.63
2018-06-11T22:55:31.049Z,16.90
2018-06-11T22:58:01.757Z,16.10
2018-06-11T23:00:35.140Z,18.83
2018-06-11T23:03:05.832Z,19.03
2018-06-11T23:05:36.445Z,17.73
2018-06-11T23:08:07.196Z,16.40
2018-06-11T23:10:37.846Z,16.07
2018-06-11T23:13:08.562Z,22.43
2018-06-11T23:15:39.253Z,13.17
2018-06-11T23:18:09.794Z,17.37
2018-06-11T23:20:40.333Z,15.70
2018-06-11T23:23:10.880Z,18.37
2018-06-11T23:25:41.976Z,13.90
2018-06-11T23:28:12.281Z,18.33
2018-06-11T23:30:42.817Z,16.30
2018-06-11T23:33:13.485Z,22.37
2018-06-11T23:35:44.228Z,20.93
2018-06-11T23:38:14.839Z,19.53
2018-06-11T23:40:45.541Z,16.93
2018-06-11T23:43:16.148Z,18.37
2018-06-11T23:45:46.720Z,19.27
2018-06-11T23:48:17.289Z,19.13
2018-06-11T23:50:47.900Z,12.90
2018-06-11T23:53:18.681Z,13.20
2018-06-11T23:55:49.240Z,19.30
2018-06-11T23:58:19.898Z,14.00
